Time;durP1;ratioP1;P1;durP2;ratioP2;P2;SDS_P1;SDS_P2;PMS_P1;PMS_P2;Temp;Humidity;BMP_temperature;BMP_pressure;BME280_temperature;BME280_humidity;BME280_pressure;Samples;Min_cycle;Max_cycle;Signal;HPM_P1;HPM_P2
2022/09/15 05:16:51;;;;;;;1.50;1.32;;;;;;;24.91;51.67;98566.42;1940446;72;27867;-76
2022/09/15 05:19:41;;;;;;;1.90;1.30;;;;;;;25.23;51.22;98570.59;1883909;75;28024;-74
2022/09/15 05:22:30;;;;;;;1.32;1.22;;;;;;;26.02;49.86;98568.64;1880516;75;28188;-74
2022/09/15 05:25:18;;;;;;;1.10;1.10;;;;;;;26.68;48.87;98574.72;1881907;75;28138;-73
2022/09/15 05:28:07;;;;;;;1.20;1.20;;;;;;;27.24;47.89;98586.25;1884131;75;32046;-74
2022/09/15 05:30:57;;;;;;;1.12;1.12;;;;;;;27.69;47.05;98586.47;1880400;75;28078;-72
2022/09/15 05:33:46;;;;;;;1.40;1.30;;;;;;;28.02;46.30;98578.73;1880169;75;28140;-72
2022/09/15 05:36:35;;;;;;;1.25;1.20;;;;;;;28.30;45.60;98583.38;1882930;75;28145;-72
2022/09/15 05:39:23;;;;;;;1.40;1.30;;;;;;;28.52;45.11;98591.14;1882748;75;28605;-73
2022/09/15 05:42:12;;;;;;;1.17;1.17;;;;;;;28.69;44.75;98586.78;1880433;75;32027;-74
2022/09/15 05:45:00;;;;;;;1.37;1.30;;;;;;;28.85;44.39;98590.16;1878612;75;28095;-74
2022/09/15 05:47:50;;;;;;;1.15;1.15;;;;;;;28.97;44.12;98592.48;1877494;73;28784;-74
2022/09/15 05:50:47;;;;;;;1.20;1.20;;;;;;;29.05;43.77;98598.73;1882038;75;28046;-74
2022/09/15 05:53:36;;;;;;;1.65;1.20;;;;;;;29.14;43.53;98601.09;1902199;75;28063;-72
2022/09/15 05:56:24;;;;;;;1.10;1.10;;;;;;;29.16;43.27;98590.55;1880385;75;28098;-74
2022/09/15 05:59:13;;;;;;;1.10;1.10;;;;;;;29.24;43.04;98595.45;1883092;75;28197;-73
2022/09/15 06:02:02;;;;;;;1.15;1.10;;;;;;;29.29;42.91;98598.14;1864284;76;28234;-74
2022/09/15 06:04:50;;;;;;;2.98;1.15;;;;;;;29.36;42.65;98606.85;1867429;76;28081;-72
2022/09/15 06:07:41;;;;;;;1.30;1.10;;;;;;;29.42;42.41;98618.12;1869600;76;28146;-75
2022/09/15 06:10:30;;;;;;;1.47;1.30;;;;;;;29.43;42.33;98616.98;1865306;74;28122;-74
2022/09/15 06:13:18;;;;;;;1.20;1.15;;;;;;;29.46;42.19;98619.16;1871099;74;28133;-83
2022/09/15 06:16:10;;;;;;;1.35;1.25;;;;;;;29.51;42.03;98622.41;1869422;76;28192;-76
2022/09/15 06:19:01;;;;;;;3.75;1.47;;;;;;;29.53;41.92;98627.06;1862345;76;28177;-78
2022/09/15 06:22:00;;;;;;;1.32;1.22;;;;;;;29.53;41.81;98632.05;1845584;74;28174;-84
2022/09/15 06:24:51;;;;;;;1.50;1.20;;;;;;;29.51;41.76;98630.70;1850811;74;28144;-84
2022/09/15 06:27:43;;;;;;;1.30;1.20;;;;;;;29.53;41.67;98627.90;1866782;76;28034;-82
2022/09/15 06:30:32;;;;;;;1.80;1.20;;;;;;;29.54;41.57;98621.25;1863658;76;28224;-80
2022/09/15 06:33:20;;;;;;;3.30;1.27;;;;;;;29.57;41.39;98617.86;1868630;76;28182;-82
2022/09/15 06:36:10;;;;;;;1.33;1.23;;;;;;;29.55;41.31;98628.41;1868520;74;28138;-81
2022/09/15 06:38:58;;;;;;;1.20;1.10;;;;;;;29.57;41.33;98631.70;1844895;76;28223;-81
2022/09/15 06:41:48;;;;;;;1.63;1.30;;;;;;;29.59;41.20;98631.42;1869151;76;28103;-79
2022/09/15 06:44:37;;;;;;;1.22;1.10;;;;;;;29.50;41.06;98614.66;1836319;76;28197;-79
2022/09/15 06:47:32;;;;;;;1.40;1.30;;;;;;;29.58;40.92;98629.20;1863748;75;28230;-77
2022/09/15 06:50:17;;;;;;;1.40;1.10;;;;;;;29.58;41.20;98633.36;1821701;76;28261;-77
2022/09/15 06:53:05;;;;;;;1.00;1.00;;;;;;;29.65;41.39;98637.95;1870121;76;28167;-83
2022/09/15 06:55:57;;;;;;;2.02;1.00;;;;;;;29.79;41.58;98649.09;1869143;76;28225;-80
2022/09/15 06:58:51;;;;;;;0.90;0.90;;;;;;;29.92;41.94;98653.29;1861170;76;28313;-75
2022/09/15 07:01:44;;;;;;;1.42;1.10;;;;;;;29.96;41.64;98654.35;1864514;76;28101;-77
2022/09/15 07:04:39;;;;;;;1.00;1.00;;;;;;;29.97;41.82;98657.92;1866728;76;28209;-77
2022/09/15 07:07:32;;;;;;;1.07;1.07;;;;;;;29.92;41.58;98658.83;1857303;76;28102;-75
2022/09/15 07:10:20;;;;;;;2.37;1.00;;;;;;;29.89;41.43;98659.45;1836888;76;28308;-81
2022/09/15 07:13:11;;;;;;;0.95;0.90;;;;;;;29.88;41.19;98657.80;1850085;76;28064;-76
2022/09/15 07:16:06;;;;;;;1.43;1.00;;;;;;;29.90;40.96;98659.70;1853937;76;28247;-78
2022/09/15 07:19:02;;;;;;;0.90;0.90;;;;;;;29.91;40.87;98664.12;1876570;75;28203;-78
2022/09/15 07:21:53;;;;;;;7.27;5.10;;;;;;;29.89;40.76;98666.38;1868965;75;28170;-86
2022/09/15 07:24:43;;;;;;;10.32;6.50;;;;;;;29.89;40.68;98669.70;1878392;75;28140;-87
2022/09/15 07:27:31;;;;;;;5.47;4.62;;;;;;;29.86;40.58;98673.90;1887241;74;28261;-89
2022/09/15 07:30:19;;;;;;;5.75;4.45;;;;;;;29.86;40.45;98680.82;1870678;76;28155;-87
2022/09/15 07:33:10;;;;;;;6.85;4.62;;;;;;;29.86;40.38;98685.53;1875200;76;28184;-82
2022/09/15 07:36:00;;;;;;;6.42;4.25;;;;;;;29.84;40.27;98691.94;1870092;76;28217;-78
2022/09/15 07:38:50;;;;;;;5.70;4.33;;;;;;;29.86;40.29;98692.45;1878033;75;28142;-80
2022/09/15 07:41:38;;;;;;;5.00;4.40;;;;;;;29.87;40.34;98690.75;1878431;76;28061;-80
2022/09/15 07:44:27;;;;;;;7.10;4.47;;;;;;;29.85;40.38;98696.36;1877241;76;28262;-87
2022/09/15 07:47:15;;;;;;;5.22;4.75;;;;;;;29.82;40.42;98693.63;1855655;76;28182;-88
2022/09/15 07:50:06;;;;;;;6.60;4.95;;;;;;;29.82;40.38;98689.48;1850807;76;28171;-80
2022/09/15 07:52:57;;;;;;;5.10;4.65;;;;;;;29.80;40.36;98691.70;1867966;76;28123;-85
2022/09/15 07:55:47;;;;;;;8.23;5.92;;;;;;;29.80;40.27;98692.28;1879077;76;28096;-80
2022/09/15 07:58:35;;;;;;;6.35;5.47;;;;;;;29.82;40.25;98698.34;1857712;76;28094;-80
2022/09/15 08:01:24;;;;;;;6.78;5.60;;;;;;;29.79;40.23;98698.37;1867662;76;28352;-78
2022/09/15 08:04:12;;;;;;;7.33;5.83;;;;;;;29.81;40.21;98697.52;1875592;76;28123;-82
2022/09/15 08:07:00;;;;;;;7.25;5.90;;;;;;;29.82;40.26;98698.34;1861809;76;28282;-80
2022/09/15 08:09:49;;;;;;;7.13;6.00;;;;;;;29.83;40.21;98705.50;1870671;76;28044;-83
2022/09/15 08:12:39;;;;;;;6.97;5.47;;;;;;;29.85;40.25;98713.77;1872856;76;28207;-79
2022/09/15 08:15:28;;;;;;;8.08;6.08;;;;;;;29.95;40.69;98708.64;1857638;76;38691;-80
2022/09/15 08:18:16;;;;;;;8.17;6.53;;;;;;;30.08;41.02;98711.45;1847488;76;28193;-82
2022/09/15 08:21:06;;;;;;;9.70;6.40;;;;;;;30.09;40.89;98710.34;1835576;77;28099;-78
2022/09/15 08:23:57;;;;;;;10.27;6.43;;;;;;;30.12;40.84;98713.07;1835689;77;28318;-75
2022/09/15 08:26:46;;;;;;;7.33;6.20;;;;;;;30.09;40.75;98725.58;1843316;75;28293;-79
2022/09/15 08:29:37;;;;;;;7.78;6.17;;;;;;;30.02;40.30;98716.83;1839814;77;28196;-78
2022/09/15 08:32:26;;;;;;;7.55;6.30;;;;;;;30.10;40.21;98723.63;1853757;77;28234;-80
2022/09/15 08:35:14;;;;;;;8.13;5.80;;;;;;;30.07;40.16;98714.53;1841106;77;28225;-80
2022/09/15 08:38:03;;;;;;;8.38;6.35;;;;;;;30.07;40.15;98715.36;1844315;76;28154;-80
2022/09/15 08:40:54;;;;;;;7.28;6.08;;;;;;;30.06;40.07;98719.80;1796216;77;31559;-80
2022/09/15 08:44:00;;;;;;;7.37;6.00;;;;;;;30.08;39.97;98723.11;1857143;77;28165;-76
2022/09/15 08:47:12;;;;;;;6.33;5.53;;;;;;;30.09;39.93;98720.03;1836494;77;28220;-80
2022/09/15 08:50:09;;;;;;;6.20;5.60;;;;;;;29.97;40.01;98726.59;1857082;76;28149;-79
2022/09/15 08:53:05;;;;;;;7.12;5.92;;;;;;;29.95;40.10;98723.31;1848913;77;28229;-78
2022/09/15 08:55:56;;;;;;;7.20;5.97;;;;;;;29.92;40.21;98723.91;1854253;75;28297;-80
2022/09/15 08:58:46;;;;;;;6.30;5.70;;;;;;;29.97;40.16;98732.70;1836835;77;28281;-80
2022/09/15 09:01:54;;;;;;;8.58;5.75;;;;;;;29.99;40.08;98724.94;1853470;77;28107;-79
2022/09/15 09:05:02;;;;;;;8.13;6.08;;;;;;;29.97;40.11;98727.98;1851341;77;28093;-79
2022/09/15 09:08:00;;;;;;;6.45;5.80;;;;;;;29.96;40.09;98729.13;1853811;77;28266;-79
2022/09/15 09:11:05;;;;;;;6.70;5.75;;;;;;;29.92;40.14;98723.11;1843885;77;28126;-79
2022/09/15 09:14:28;;;;;;;6.03;5.35;;;;;;;29.91;40.16;98726.98;1776248;80;28393;-79
2022/09/15 09:17:39;;;;;;;7.12;5.53;;;;;;;29.87;40.20;98726.75;1858132;75;28152;-81
2022/09/15 09:20:33;;;;;;;5.30;4.80;;;;;;;29.80;40.29;98725.52;1853096;75;28172;-82
2022/09/15 09:23:27;;;;;;;6.07;5.10;;;;;;;29.79;40.27;98724.69;1815345;77;28244;-88
2022/09/15 09:26:19;;;;;;;6.22;5.45;;;;;;;29.78;40.32;98724.99;1854373;76;28204;-80
2022/09/15 09:29:22;;;;;;;6.33;4.85;;;;;;;29.80;40.22;98723.54;1855004;77;28212;-82
2022/09/15 09:32:17;;;;;;;6.60;4.90;;;;;;;29.82;40.18;98713.02;1854192;77;28127;-80
2022/09/15 09:35:18;;;;;;;6.45;4.60;;;;;;;29.78;40.24;98709.77;1856645;77;28684;-81
2022/09/15 09:38:12;;;;;;;6.12;4.47;;;;;;;29.77;40.22;98707.55;1842245;77;28600;-81
2022/09/15 09:41:02;;;;;;;11.45;4.22;;;;;;;29.73;40.27;98705.10;1849799;76;28093;-81
2022/09/15 09:43:53;;;;;;;4.33;3.83;;;;;;;29.73;40.25;98700.95;1858391;76;28147;-85
2022/09/15 09:46:41;;;;;;;4.28;3.87;;;;;;;29.76;40.21;98700.91;1847140;77;28180;-79
2022/09/15 09:49:44;;;;;;;4.43;3.50;;;;;;;29.77;40.05;98699.25;1839247;77;28243;-82
2022/09/15 09:52:35;;;;;;;4.42;3.45;;;;;;;29.77;40.05;98699.25;1840218;77;28217;-80
2022/09/15 09:55:28;;;;;;;13.68;9.08;;;;;;;29.73;40.14;98700.12;1856883;76;28151;-81
2022/09/15 09:58:21;;;;;;;15.20;10.55;;;;;;;29.74;40.13;98693.44;1863701;76;28243;-81
2022/09/15 10:01:15;;;;;;;13.85;9.23;;;;;;;29.73;40.07;98694.03;1854681;77;28159;-81
2022/09/15 10:04:14;;;;;;;11.30;7.97;;;;;;;29.78;40.01;98690.39;1841883;77;28152;-80
2022/09/15 10:07:03;;;;;;;9.15;7.30;;;;;;;29.76;39.99;98683.75;1838214;76;28241;-80
2022/09/15 10:09:55;;;;;;;9.60;7.30;;;;;;;29.76;39.98;98680.14;1834057;75;28156;-78
2022/09/15 10:12:43;;;;;;;9.50;6.67;;;;;;;29.76;39.95;98682.36;1867925;75;28056;-80
2022/09/15 10:15:35;;;;;;;8.20;6.22;;;;;;;29.76;39.96;98676.83;1857299;76;30213;-80
2022/09/15 10:18:29;;;;;;;8.37;6.43;;;;;;;29.76;39.98;98677.38;1862773;76;28221;-79
2022/09/15 10:21:20;;;;;;;6.90;6.17;;;;;;;29.76;39.93;98676.83;1871243;75;28064;-81
2022/09/15 10:24:31;;;;;;;6.60;5.90;;;;;;;29.75;39.91;98683.47;1857470;76;28099;-80
2022/09/15 10:27:32;;;;;;;6.87;5.92;;;;;;;29.74;39.87;98677.66;1857696;77;28099;-81
2022/09/15 10:30:21;;;;;;;7.05;5.47;;;;;;;29.73;39.90;98670.50;1854386;75;28203;-82
2022/09/15 10:33:25;;;;;;;7.83;5.80;;;;;;;29.72;39.87;98666.06;1796082;79;28381;-81
2022/09/15 10:36:22;;;;;;;6.50;5.65;;;;;;;29.77;39.81;98670.73;1816989;78;28193;-80
2022/09/15 10:39:22;;;;;;;6.40;5.65;;;;;;;29.76;39.76;98664.92;1857112;77;28164;-81
2022/09/15 10:42:16;;;;;;;7.08;5.03;;;;;;;29.77;39.69;98667.41;1861954;75;28149;-82
2022/09/15 10:45:25;;;;;;;7.25;5.40;;;;;;;29.78;39.64;98665.47;1857197;77;28154;-82
2022/09/15 10:48:31;;;;;;;5.80;5.15;;;;;;;29.77;39.59;98656.89;1857212;77;28112;-81
2022/09/15 10:51:37;;;;;;;6.00;5.40;;;;;;;29.74;39.57;98662.43;1882217;75;38518;-80
2022/09/15 10:54:48;;;;;;;5.55;4.72;;;;;;;29.72;39.65;98659.70;1849730;77;28111;-79
2022/09/15 10:58:07;;;;;;;7.40;5.03;;;;;;;29.71;39.67;98654.72;1820448;77;28207;-86
2022/09/15 11:01:22;;;;;;;4.75;4.33;;;;;;;29.69;39.73;98654.20;1860240;75;28156;-82
2022/09/15 11:04:23;;;;;;;6.90;5.17;;;;;;;29.69;39.93;98650.05;1834895;77;28203;-80
2022/09/15 11:07:18;;;;;;;7.92;6.65;;;;;;;29.68;39.80;98645.66;1841362;77;28252;-81
2022/09/15 11:10:12;;;;;;;9.53;7.03;;;;;;;29.73;39.76;98643.37;1837116;75;28172;-79
2022/09/15 11:13:12;;;;;;;10.88;7.92;;;;;;;29.75;39.75;98636.41;1854352;76;28472;-75
2022/09/15 11:16:09;;;;;;;9.63;6.80;;;;;;;29.79;39.73;98640.23;1841019;77;28183;-78
2022/09/15 11:19:13;;;;;;;9.30;6.50;;;;;;;29.84;39.59;98629.63;1854261;76;28109;-76
2022/09/15 11:22:05;;;;;;;8.10;6.53;;;;;;;29.86;39.58;98628.77;1854148;76;28205;-75
2022/09/15 11:25:06;;;;;;;6.65;5.95;;;;;;;29.87;39.56;98624.89;1841263;77;31062;-76
2022/09/15 11:27:57;;;;;;;7.10;5.83;;;;;;;29.90;39.56;98620.93;1843726;77;28681;-76
2022/09/15 11:31:10;;;;;;;8.05;5.40;;;;;;;29.93;39.48;98619.50;1857262;75;28174;-77
2022/09/15 11:34:05;;;;;;;6.25;5.65;;;;;;;29.93;39.52;98612.58;1844346;76;28107;-84
2022/09/15 11:36:58;;;;;;;6.25;5.65;;;;;;;29.90;39.58;98609.85;1865090;76;38466;-74
2022/09/15 11:39:50;;;;;;;7.72;5.30;;;;;;;29.93;39.54;98613.41;1855568;76;28114;-85
2022/09/15 11:42:47;;;;;;;7.30;5.80;;;;;;;29.99;39.96;98617.72;1857149;77;28183;-76
2022/09/15 11:45:39;;;;;;;8.20;6.50;;;;;;;30.23;41.17;98602.88;1847839;77;28291;-77
2022/09/15 11:48:35;;;;;;;8.15;6.30;;;;;;;30.37;42.13;98609.28;1851758;77;28654;-79
2022/09/15 11:51:26;;;;;;;7.42;6.03;;;;;;;30.48;42.71;98606.00;1852386;75;28145;-77
2022/09/15 11:54:27;;;;;;;9.65;5.90;;;;;;;30.59;43.25;98596.92;1834413;77;28370;-80
2022/09/15 11:57:18;;;;;;;6.62;5.70;;;;;;;30.74;43.37;98597.97;1826444;78;28266;-80
2022/09/15 12:00:15;;;;;;;9.35;7.17;;;;;;;30.85;43.53;98598.03;1855788;77;28188;-77
2022/09/15 12:03:10;;;;;;;10.63;8.23;;;;;;;30.92;44.72;98594.86;1869737;75;28100;-80
2022/09/15 12:06:22;;;;;;;12.30;8.80;;;;;;;30.96;44.81;98591.72;1839562;77;28268;-81
2022/09/15 12:09:17;;;;;;;8.73;7.10;;;;;;;30.97;45.35;98590.00;1850381;75;28256;-81
2022/09/15 12:12:14;;;;;;;7.80;6.80;;;;;;;30.96;44.09;98593.10;1842971;77;28241;-78
2022/09/15 12:15:03;;;;;;;8.50;6.22;;;;;;;30.95;43.64;98584.55;1838442;77;28205;-78
2022/09/15 12:18:03;;;;;;;5.80;5.20;;;;;;;30.91;42.40;98586.27;1847198;77;28133;-78
2022/09/15 12:21:06;;;;;;;5.62;5.12;;;;;;;30.88;41.51;98591.05;1857125;76;28240;-77
2022/09/15 12:24:03;;;;;;;6.30;5.13;;;;;;;30.83;40.99;98580.86;1841477;76;28161;-78
2022/09/15 12:26:52;;;;;;;7.05;5.35;;;;;;;30.78;40.63;98581.00;1843931;77;28308;-76
2022/09/15 12:29:49;;;;;;;5.85;5.25;;;;;;;30.73;40.44;98583.31;1873503;75;28255;-75
2022/09/15 12:32:39;;;;;;;6.53;5.15;;;;;;;30.71;40.37;98583.37;1857369;77;28095;-76
2022/09/15 12:35:32;;;;;;;7.60;5.78;;;;;;;30.69;40.37;98577.31;1850484;77;28195;-76
2022/09/15 12:38:23;;;;;;;5.75;5.10;;;;;;;30.68;40.35;98574.27;1849300;75;28182;-76
2022/09/15 12:41:12;;;;;;;5.42;4.92;;;;;;;30.63;40.30;98571.61;1841745;77;28223;-79
2022/09/15 12:44:07;;;;;;;5.83;4.78;;;;;;;30.60;40.25;98579.97;1857019;77;28231;-77
2022/09/15 12:46:58;;;;;;;4.70;4.30;;;;;;;30.61;40.20;98574.70;1851310;77;28138;-77
2022/09/15 12:49:51;;;;;;;5.03;4.53;;;;;;;30.56;40.09;98579.52;1857752;75;28146;-77
2022/09/15 12:52:53;;;;;;;4.58;3.62;;;;;;;30.52;39.99;98575.17;1843295;77;28090;-77
2022/09/15 12:55:57;;;;;;;4.00;3.60;;;;;;;30.51;39.70;98567.97;1857440;76;28243;-78
2022/09/15 12:58:51;;;;;;;4.03;3.70;;;;;;;30.45;39.56;98566.45;1855158;75;28165;-76
2022/09/15 13:01:53;;;;;;;4.13;3.73;;;;;;;30.43;40.04;98570.66;1854788;77;28165;-76
2022/09/15 13:04:45;;;;;;;4.22;3.60;;;;;;;30.44;40.26;98566.73;1853726;77;28185;-77
2022/09/15 13:07:53;;;;;;;3.45;3.15;;;;;;;30.43;40.49;98559.57;1823073;77;28300;-76
2022/09/15 13:10:47;;;;;;;3.60;2.90;;;;;;;30.50;40.63;98563.55;1857372;77;28164;-76
2022/09/15 13:13:45;;;;;;;3.30;2.95;;;;;;;30.52;41.11;98559.09;1858318;76;28049;-74
2022/09/15 13:17:01;;;;;;;3.60;3.30;;;;;;;30.56;41.51;98557.34;1826147;78;28289;-77
2022/09/15 13:19:54;;;;;;;3.20;2.90;;;;;;;30.61;41.82;98558.06;1869903;75;28116;-81
2022/09/15 13:22:45;;;;;;;3.50;3.20;;;;;;;30.64;41.80;98549.70;1862579;76;28197;-79
2022/09/15 13:25:35;;;;;;;5.05;4.40;;;;;;;30.55;42.19;98538.50;1875221;76;28175;-81
2022/09/15 13:28:26;;;;;;;5.47;4.90;;;;;;;30.63;41.15;98541.11;1871044;74;28106;-81
2022/09/15 13:31:20;;;;;;;3.80;3.50;;;;;;;30.65;40.70;98544.39;1858989;76;28119;-85
2022/09/15 13:34:20;;;;;;;3.85;3.55;;;;;;;30.64;39.14;98553.86;1878679;76;28187;-80
2022/09/15 13:37:24;;;;;;;2.37;2.17;;;;;;;30.62;38.66;98534.73;1878553;76;28177;-85
2022/09/15 13:40:27;;;;;;;2.60;2.40;;;;;;;30.60;37.69;98532.02;1850072;75;28179;-79
2022/09/15 13:43:38;;;;;;;1.87;1.75;;;;;;;30.54;37.30;98521.63;1878229;76;28129;-89
2022/09/15 13:46:43;;;;;;;1.65;1.55;;;;;;;30.53;36.86;98527.46;1873581;76;28186;-79
2022/09/15 13:49:50;;;;;;;1.72;1.62;;;;;;;30.48;36.78;98530.37;1865594;76;28143;-79
2022/09/15 13:52:46;;;;;;;2.05;1.92;;;;;;;30.49;36.71;98530.05;1846603;75;28100;-79
2022/09/15 13:55:41;;;;;;;2.00;1.90;;;;;;;30.48;36.70;98524.23;1870883;76;28213;-80
2022/09/15 13:58:31;;;;;;;1.87;1.77;;;;;;;30.48;36.80;98526.21;1878742;76;28116;-79
2022/09/15 14:01:24;;;;;;;2.08;1.98;;;;;;;30.47;36.81;98527.33;1871531;76;31997;-79
2022/09/15 14:04:20;;;;;;;2.00;1.90;;;;;;;30.48;36.86;98524.83;1877793;76;28201;-80
2022/09/15 14:07:11;;;;;;;2.15;2.05;;;;;;;30.49;36.98;98523.13;1867186;76;28203;-78
2022/09/15 14:10:01;;;;;;;2.47;2.10;;;;;;;30.50;37.00;98518.41;1869653;76;28115;-78
2022/09/15 14:12:53;;;;;;;2.10;2.00;;;;;;;30.48;37.09;98510.97;1878501;76;28187;-78
2022/09/15 14:16:01;;;;;;;2.58;2.37;;;;;;;30.50;37.18;98517.81;1837436;76;28270;-78
2022/09/15 14:18:56;;;;;;;2.27;2.07;;;;;;;30.51;37.28;98514.48;1872252;76;28143;-79
2022/09/15 14:21:48;;;;;;;1.70;1.60;;;;;;;30.46;37.28;98515.41;1865704;76;28195;-82
2022/09/15 14:24:39;;;;;;;1.75;1.65;;;;;;;30.46;37.08;98515.41;1853790;76;28390;-79
2022/09/15 14:27:34;;;;;;;1.30;1.20;;;;;;;30.49;36.90;98511.20;1853953;75;28113;-78
2022/09/15 14:30:25;;;;;;;1.85;1.50;;;;;;;30.50;36.80;98516.42;1863896;76;28132;-82
2022/09/15 14:33:28;;;;;;;2.02;1.50;;;;;;;30.46;36.79;98511.26;1870116;76;28220;-79
2022/09/15 14:36:30;;;;;;;1.60;1.50;;;;;;;30.37;36.93;98508.96;1859453;76;28230;-76
2022/09/15 14:39:24;;;;;;;2.00;1.90;;;;;;;30.42;36.93;98514.96;1860034;76;28222;-75
2022/09/15 14:42:29;;;;;;;2.47;2.20;;;;;;;30.38;36.99;98506.46;1875103;76;28092;-85
2022/09/15 14:45:18;;;;;;;2.60;2.50;;;;;;;30.37;37.07;98513.12;1878719;75;28096;-75
2022/09/15 14:48:11;;;;;;;3.37;3.08;;;;;;;30.31;37.24;98508.80;1856594;76;28164;-76
2022/09/15 14:51:02;;;;;;;9.25;3.10;;;;;;;30.33;37.25;98514.05;1873658;76;28117;-76
2022/09/15 14:53:52;;;;;;;3.12;2.83;;;;;;;30.36;37.28;98513.44;1862260;76;28149;-75
2022/09/15 14:56:43;;;;;;;3.10;2.80;;;;;;;30.32;37.31;98509.59;1876875;76;28216;-75
2022/09/15 14:59:37;;;;;;;5.03;3.30;;;;;;;30.33;37.37;98505.73;1869320;76;28148;-75
2022/09/15 15:02:32;;;;;;;3.50;3.20;;;;;;;30.34;37.41;98499.87;1866717;76;28296;-75
2022/09/15 15:05:29;;;;;;;3.03;2.83;;;;;;;30.32;37.43;98493.80;1872568;76;28226;-77
2022/09/15 15:08:37;;;;;;;3.80;3.10;;;;;;;30.31;37.46;98496.89;1874081;76;38503;-79
2022/09/15 15:11:28;;;;;;;3.27;2.98;;;;;;;30.32;37.48;98492.97;1853086;76;28200;-79
2022/09/15 15:14:19;;;;;;;3.20;3.00;;;;;;;30.26;37.56;98483.96;1878389;76;28320;-78
2022/09/15 15:17:12;;;;;;;3.10;2.80;;;;;;;30.28;37.59;98488.62;1873828;76;28154;-77
2022/09/15 15:20:09;;;;;;;3.17;2.70;;;;;;;30.31;37.59;98491.34;1878309;76;28117;-77
2022/09/15 15:23:25;;;;;;;2.80;2.60;;;;;;;30.30;37.59;98489.69;1867492;76;28226;-76
2022/09/15 15:26:39;;;;;;;4.00;3.33;;;;;;;30.28;37.63;98494.72;1857811;76;28200;-82
2022/09/15 15:29:40;;;;;;;3.33;3.10;;;;;;;30.21;37.76;98496.53;1834170;77;28269;-79
2022/09/15 15:32:30;;;;;;;3.00;2.80;;;;;;;30.19;37.79;98500.73;1853391;77;28580;-76
2022/09/15 15:35:20;;;;;;;2.60;2.40;;;;;;;30.15;37.89;98502.48;1848190;77;28203;-75
2022/09/15 15:38:18;;;;;;;2.62;2.37;;;;;;;30.13;37.92;98509.70;1847753;76;28112;-76
2022/09/15 15:41:09;;;;;;;2.83;2.62;;;;;;;30.15;38.13;98517.73;1852241;77;28150;-77
2022/09/15 15:44:08;;;;;;;3.58;2.70;;;;;;;30.18;38.11;98515.73;1856420;77;28276;-77
2022/09/15 15:47:15;;;;;;;2.77;2.58;;;;;;;30.22;38.02;98516.75;1857404;77;28286;-77
2022/09/15 15:50:17;;;;;;;2.77;2.57;;;;;;;30.23;37.93;98515.61;1856810;77;28176;-76
2022/09/15 15:53:07;;;;;;;2.27;2.17;;;;;;;30.23;37.85;98517.81;1857332;77;28167;-77
2022/09/15 15:55:58;;;;;;;2.20;2.10;;;;;;;30.32;37.58;98510.98;1856461;77;28259;-77
2022/09/15 15:58:47;;;;;;;1.60;1.50;;;;;;;30.28;37.36;98507.19;1837566;76;28255;-77
2022/09/15 16:01:35;;;;;;;2.00;1.80;;;;;;;30.31;37.02;98496.33;1827641;77;28389;-77
2022/09/15 16:04:24;;;;;;;2.55;1.90;;;;;;;30.34;36.86;98506.00;1846509;77;28160;-77
2022/09/15 16:07:15;;;;;;;2.37;2.00;;;;;;;30.38;36.83;98504.25;1840162;77;28270;-77
2022/09/15 16:10:06;;;;;;;1.80;1.70;;;;;;;30.32;36.90;98511.80;1836723;77;28242;-77
2022/09/15 16:12:55;;;;;;;1.60;1.50;;;;;;;30.30;36.93;98500.77;1857175;77;28164;-77
2022/09/15 16:15:45;;;;;;;1.55;1.45;;;;;;;30.27;36.73;98511.91;1857313;77;28153;-77
2022/09/15 16:18:33;;;;;;;1.60;1.50;;;;;;;30.27;36.55;98526.34;1857381;77;28248;-76
2022/09/15 16:21:35;;;;;;;0.80;0.80;;;;;;;30.21;36.45;98621.76;1857412;77;28232;-78
2022/09/15 16:24:20;;;;;;;0.80;0.80;;;;;;;30.13;36.12;98580.93;1857128;77;28068;-77
2022/09/15 16:27:15;;;;;;;0.60;0.60;;;;;;;30.05;36.42;98586.61;1869064;76;28080;-78
2022/09/15 16:30:07;;;;;;;0.80;0.50;;;;;;;30.00;36.53;98551.52;1864120;76;28087;-75
2022/09/15 16:32:56;;;;;;;0.40;0.40;;;;;;;29.92;36.67;98561.11;1869188;76;28116;-78
2022/09/15 16:35:50;;;;;;;0.70;0.70;;;;;;;29.90;36.85;98577.18;1876926;74;28101;-77
2022/09/15 16:38:39;;;;;;;0.70;0.70;;;;;;;29.91;37.23;98599.05;1872316;75;28152;-78
2022/09/15 16:41:28;;;;;;;2.67;1.00;;;;;;;29.92;37.42;98602.06;1864886;76;28186;-75
2022/09/15 16:44:20;;;;;;;0.98;0.80;;;;;;;29.94;37.68;98612.27;1850456;76;28158;-76
2022/09/15 16:47:10;;;;;;;0.90;0.90;;;;;;;29.94;37.70;98628.87;1878930;74;28285;-76
2022/09/15 16:50:00;;;;;;;1.20;0.80;;;;;;;29.96;37.74;98650.75;1869178;76;28074;-84
2022/09/15 16:52:49;;;;;;;0.90;0.90;;;;;;;29.98;37.77;98647.94;1869432;76;28199;-75
2022/09/15 16:55:54;;;;;;;1.00;1.00;;;;;;;29.96;37.82;98648.81;1849519;76;28159;-76
2022/09/15 16:58:44;;;;;;;4.47;4.08;;;;;;;29.95;37.91;98641.62;1858733;76;28120;-76
2022/09/15 17:01:33;;;;;;;3.22;2.92;;;;;;;29.91;38.26;98632.84;1869172;76;28148;-76
2022/09/15 17:04:21;;;;;;;4.47;3.22;;;;;;;29.91;38.46;98650.84;1866248;76;28228;-76
2022/09/15 17:07:10;;;;;;;3.60;3.20;;;;;;;29.87;38.65;98642.30;1865797;76;28186;-76
2022/09/15 17:09:58;;;;;;;3.35;3.05;;;;;;;29.84;38.71;98652.61;1853950;76;28192;-76
2022/09/15 17:12:47;;;;;;;2.55;2.37;;;;;;;29.81;38.74;98661.52;1863404;76;28195;-76
2022/09/15 17:15:44;;;;;;;3.10;2.90;;;;;;;29.88;38.63;98684.66;1853177;74;28259;-77
2022/09/15 17:18:30;;;;;;;3.10;2.87;;;;;;;29.87;38.75;98681.06;1858565;76;28143;-83
2022/09/15 17:21:20;;;;;;;3.30;2.95;;;;;;;29.83;39.13;98673.11;1866523;76;28226;-74
2022/09/15 17:24:10;;;;;;;2.90;2.70;;;;;;;29.82;39.28;98672.87;1868474;76;28175;-74
2022/09/15 17:26:58;;;;;;;3.35;2.40;;;;;;;29.81;39.48;98674.53;1891042;74;28156;-74
2022/09/15 17:29:46;;;;;;;2.70;2.50;;;;;;;29.85;39.51;98669.47;1837709;77;28758;-73
2022/09/15 17:32:36;;;;;;;2.72;2.42;;;;;;;29.86;39.53;98661.99;1862693;76;28285;-74
2022/09/15 17:35:26;;;;;;;2.47;2.27;;;;;;;29.85;39.54;98658.98;1857104;76;28251;-76
2022/09/15 17:38:18;;;;;;;2.72;2.30;;;;;;;29.86;39.71;98663.38;1862304;76;28180;-76
2022/09/15 17:41:05;;;;;;;2.35;2.20;;;;;;;29.87;39.73;98653.38;1840321;76;28214;-75
2022/09/15 17:43:57;;;;;;;2.50;2.30;;;;;;;29.88;39.89;98660.57;1856146;76;28180;-75
2022/09/15 17:46:50;;;;;;;2.83;2.62;;;;;;;29.85;40.00;98667.29;1859089;76;28148;-75
2022/09/15 17:49:39;;;;;;;2.70;2.50;;;;;;;29.84;40.04;98666.46;1871248;76;28116;-76
2022/09/15 17:52:28;;;;;;;2.50;2.30;;;;;;;29.83;40.06;98660.65;1867844;76;28092;-77
2022/09/15 17:55:32;;;;;;;4.53;2.30;;;;;;;29.84;40.03;98661.48;1867585;76;28238;-75
2022/09/15 17:58:23;;;;;;;2.73;2.50;;;;;;;29.83;40.04;98663.97;1857963;76;28211;-76
2022/09/15 18:01:15;;;;;;;2.35;2.22;;;;;;;29.78;40.06;98662.11;1854249;76;28159;-76
2022/09/15 18:04:11;;;;;;;3.70;2.50;;;;;;;29.75;40.06;98665.48;1868870;75;28223;-76
2022/09/15 18:07:00;;;;;;;3.23;2.47;;;;;;;29.76;40.03;98671.28;1875141;75;28120;-77
2022/09/15 18:09:48;;;;;;;2.60;2.40;;;;;;;29.78;39.96;98666.27;1864709;76;28315;-76
2022/09/15 18:12:36;;;;;;;2.60;2.40;;;;;;;29.79;39.92;98669.86;1865201;76;28159;-77
2022/09/15 18:15:30;;;;;;;2.40;2.30;;;;;;;29.79;39.95;98672.63;1858657;76;28285;-76
2022/09/15 18:18:22;;;;;;;2.85;2.65;;;;;;;29.79;39.86;98667.92;1845753;76;28174;-76
2022/09/15 18:21:23;;;;;;;2.80;2.60;;;;;;;29.77;39.87;98672.95;1859948;76;28214;-75
2022/09/15 18:24:14;;;;;;;2.20;2.10;;;;;;;29.79;39.81;98667.92;1863551;76;28207;-74
2022/09/15 18:27:03;;;;;;;2.53;2.33;;;;;;;29.79;39.83;98669.86;1868713;75;28685;-75
2022/09/15 18:29:54;;;;;;;2.85;2.65;;;;;;;29.76;39.90;98679.59;1877137;76;31130;-76
2022/09/15 18:32:43;;;;;;;2.70;2.50;;;;;;;29.79;40.00;98679.00;1870799;76;28141;-75
2022/09/15 18:35:32;;;;;;;2.80;2.60;;;;;;;29.79;40.00;98679.00;1829003;77;28132;-74
2022/09/15 18:38:22;;;;;;;2.65;2.45;;;;;;;29.79;39.81;98679.55;1842904;77;28263;-75
2022/09/15 18:41:11;;;;;;;4.42;3.30;;;;;;;29.78;39.85;98681.49;1827122;77;28202;-74
2022/09/15 18:44:00;;;;;;;3.45;3.15;;;;;;;29.77;39.87;98688.17;1821961;78;28328;-76
2022/09/15 18:46:49;;;;;;;3.50;3.20;;;;;;;29.73;39.81;98677.42;1810202;78;28394;-75
2022/09/15 18:49:37;;;;;;;3.10;2.90;;;;;;;29.81;39.78;98682.28;1821143;78;28288;-75
2022/09/15 18:52:26;;;;;;;3.00;2.80;;;;;;;29.80;39.80;98677.86;1795262;78;28288;-77
2022/09/15 18:55:18;;;;;;;3.67;3.10;;;;;;;29.80;39.79;98682.01;1840993;77;28520;-75